createdAt,value
2019-03-29T00:00:59.450Z,949.51
2019-03-29T00:01:59.854Z,949.47
2019-03-29T00:03:00.054Z,949.46
2019-03-29T00:04:01.274Z,949.44
2019-03-29T00:05:01.775Z,949.43
2019-03-29T00:06:02.682Z,949.45
2019-03-29T00:07:04.352Z,949.42
2019-03-29T00:08:05.664Z,949.4
2019-03-29T00:09:06.634Z,949.44
2019-03-29T00:10:06.839Z,949.44
2019-03-29T00:11:07.429Z,949.43
2019-03-29T00:12:08.359Z,949.39
2019-03-29T00:13:08.673Z,949.39
2019-03-29T00:14:09.151Z,949.4
2019-03-29T00:15:09.637Z,949.39
2019-03-29T00:16:10.479Z,949.36
2019-03-29T00:17:11.535Z,949.35
2019-03-29T00:18:12.293Z,949.35
2019-03-29T00:19:12.776Z,949.36
2019-03-29T00:20:13.535Z,949.3
2019-03-29T00:21:14.011Z,949.29
2019-03-29T00:22:14.654Z,949.29
2019-03-29T00:23:15.699Z,949.27
2019-03-29T00:24:16.496Z,949.28
2019-03-29T00:25:17.565Z,949.27
2019-03-29T00:26:18.153Z,949.24
2019-03-29T00:27:19.434Z,949.27
2019-03-29T00:28:19.918Z,949.26
2019-03-29T00:29:20.676Z,949.18
2019-03-29T00:30:22.620Z,949.21
2019-03-29T00:31:23.394Z,949.16
2019-03-29T00:32:24.062Z,949.19
2019-03-29T00:33:25.097Z,949.21
2019-03-29T00:34:25.848Z,949.13
2019-03-29T00:35:26.332Z,949.12
2019-03-29T00:36:27.152Z,949.17
2019-03-29T00:37:27.650Z,949.1
2019-03-29T00:38:28.136Z,949.09
2019-03-29T00:39:29.180Z,949.14
2019-03-29T00:40:29.938Z,949.1
2019-03-29T00:41:30.180Z,949.07
2019-03-29T00:42:31.108Z,949.09
2019-03-29T00:43:31.594Z,949.07
2019-03-29T00:44:31.794Z,949.12
2019-03-29T00:45:32.860Z,949.06
2019-03-29T00:46:33.370Z,949.07
2019-03-29T00:47:34.230Z,949.05
2019-03-29T00:48:36.435Z,949.01
2019-03-29T00:49:37.474Z,948.95
2019-03-29T00:50:38.235Z,949.01
2019-03-29T00:51:38.993Z,949
2019-03-29T00:52:39.277Z,948.99
2019-03-29T00:53:40.099Z,948.99
2019-03-29T00:54:41.140Z,948.97
2019-03-29T00:55:41.896Z,948.99
2019-03-29T00:56:42.207Z,948.98
2019-03-29T00:57:42.978Z,948.92
2019-03-29T00:58:43.737Z,948.92
2019-03-29T00:59:44.067Z,948.86
2019-03-29T01:00:44.292Z,948.86
2019-03-29T01:01:45.049Z,948.87
2019-03-29T01:02:45.722Z,948.88
2019-03-29T01:03:46.498Z,948.87
2019-03-29T01:04:47.472Z,948.84
2019-03-29T01:05:48.807Z,948.84
2019-03-29T01:06:49.569Z,948.84
2019-03-29T01:07:50.080Z,948.82
2019-03-29T01:08:07.434Z,948.82
2019-03-29T01:08:10.851Z,948.82
2019-03-29T01:09:10.861Z,948.82
2019-03-29T01:10:11.070Z,948.78
2019-03-29T01:11:11.554Z,948.8
2019-03-29T01:12:11.830Z,948.78
2019-03-29T01:13:12.593Z,948.79
2019-03-29T01:14:12.795Z,948.76
2019-03-29T01:15:13.727Z,948.75
2019-03-29T01:16:14.512Z,948.77
2019-03-29T01:17:14.807Z,948.77
2019-03-29T01:18:15.897Z,948.8
2019-03-29T01:19:16.389Z,948.77
2019-03-29T01:20:16.649Z,948.78
2019-03-29T01:21:17.046Z,948.77
2019-03-29T01:22:18.094Z,948.69
2019-03-29T01:23:18.602Z,948.73
2019-03-29T01:24:19.089Z,948.72
2019-03-29T01:25:19.297Z,948.73
2019-03-29T01:26:20.337Z,948.72
2019-03-29T01:27:21.188Z,948.71
2019-03-29T01:28:21.987Z,948.7
2019-03-29T01:29:22.465Z,948.71
2019-03-29T01:30:23.336Z,948.66
2019-03-29T01:31:23.810Z,948.7
2019-03-29T01:32:24.287Z,948.67
2019-03-29T01:33:25.538Z,948.68
2019-03-29T01:34:26.010Z,948.65
2019-03-29T01:35:26.509Z,948.66
2019-03-29T01:36:28.564Z,948.66
2019-03-29T01:37:29.048Z,948.65
2019-03-29T01:38:29.267Z,948.69
2019-03-29T01:39:30.321Z,948.71
2019-03-29T01:40:31.075Z,948.72
2019-03-29T01:41:31.552Z,948.71
2019-03-29T01:42:32.039Z,948.7
2019-03-29T01:43:32.846Z,948.68
2019-03-29T01:44:33.925Z,948.66
2019-03-29T01:45:34.685Z,948.71
2019-03-29T01:46:35.439Z,948.68
2019-03-29T01:47:36.516Z,948.72
2019-03-29T01:48:37.552Z,948.71
2019-03-29T01:49:38.336Z,948.7
2019-03-29T01:50:38.637Z,948.71
2019-03-29T01:51:39.394Z,948.71
2019-03-29T01:52:39.606Z,948.69
2019-03-29T01:53:40.083Z,948.74
2019-03-29T01:54:40.871Z,948.73
2019-03-29T01:55:41.626Z,948.77
2019-03-29T01:56:42.197Z,948.73
2019-03-29T01:57:42.679Z,948.72
2019-03-29T01:58:43.803Z,948.72
2019-03-29T01:59:44.540Z,948.7
2019-03-29T02:00:45.028Z,948.62
2019-03-29T02:01:45.510Z,948.66
2019-03-29T02:02:47.401Z,948.67
2019-03-29T02:03:48.431Z,948.67
2019-03-29T02:04:49.196Z,948.66
2019-03-29T02:05:49.952Z,948.68
2019-03-29T02:06:50.987Z,948.61
2019-03-29T02:07:51.756Z,948.62
2019-03-29T02:08:53.073Z,948.61
2019-03-29T02:09:53.739Z,948.65
2019-03-29T02:10:54.591Z,948.59
2019-03-29T02:11:55.124Z,948.59
2019-03-29T02:12:55.889Z,948.62
2019-03-29T02:13:56.721Z,948.57
2019-03-29T02:14:56.919Z,948.54
2019-03-29T02:15:57.965Z,948.54
2019-03-29T02:16:58.280Z,948.55
2019-03-29T02:17:58.762Z,948.55
2019-03-29T02:18:58.967Z,948.54
2019-03-29T02:19:59.898Z,948.55
2019-03-29T02:21:00.301Z,948.55
2019-03-29T02:22:01.061Z,948.51
2019-03-29T02:23:01.836Z,948.5
2019-03-29T02:24:02.951Z,948.49
2019-03-29T02:25:04.072Z,948.48
2019-03-29T02:26:05.429Z,948.51
2019-03-29T02:27:06.588Z,948.48
2019-03-29T02:28:06.810Z,948.49
2019-03-29T02:29:07.567Z,948.52
2019-03-29T02:30:08.467Z,948.55
2019-03-29T02:31:09.990Z,948.51
2019-03-29T02:32:11.189Z,948.53
2019-03-29T02:33:11.954Z,948.57
2019-03-29T02:34:12.751Z,948.55
2019-03-29T02:35:13.576Z,948.53
2019-03-29T02:36:14.911Z,948.52
2019-03-29T02:37:15.710Z,948.48
2019-03-29T02:38:16.867Z,948.56
2019-03-29T02:39:17.901Z,948.53
2019-03-29T02:40:18.406Z,948.55
2019-03-29T02:41:20.135Z,948.5
2019-03-29T02:42:21.110Z,948.5
2019-03-29T02:43:21.988Z,948.51
2019-03-29T02:44:23.204Z,948.51
2019-03-29T02:45:24.103Z,948.49
2019-03-29T02:46:26.216Z,948.5
2019-03-29T02:47:26.592Z,948.51
2019-03-29T02:48:26.905Z,948.5
2019-03-29T02:49:27.502Z,948.52
2019-03-29T02:50:28.476Z,948.5
2019-03-29T02:51:29.623Z,948.49
2019-03-29T02:52:30.104Z,948.51
2019-03-29T02:53:31.158Z,948.46
2019-03-29T02:54:32.080Z,948.45
2019-03-29T02:55:33.120Z,948.47
2019-03-29T02:56:33.515Z,948.51
2019-03-29T02:57:34.647Z,948.47
2019-03-29T02:58:35.254Z,948.55
2019-03-29T02:59:36.312Z,948.57
2019-03-29T03:00:37.136Z,948.56
2019-03-29T03:01:37.947Z,948.58
2019-03-29T03:02:38.865Z,948.55
2019-03-29T03:03:40.147Z,948.52
2019-03-29T03:04:41.319Z,948.49
2019-03-29T03:05:41.839Z,948.47
2019-03-29T03:06:43.179Z,948.45
2019-03-29T03:07:44.536Z,948.46
2019-03-29T03:08:45.455Z,948.45
2019-03-29T03:09:46.794Z,948.48
2019-03-29T03:10:47.504Z,948.48
2019-03-29T03:11:48.262Z,948.48
2019-03-29T03:12:48.933Z,948.5
2019-03-29T03:13:49.556Z,948.53
2019-03-29T03:14:50.529Z,948.46
2019-03-29T03:15:50.866Z,948.5
2019-03-29T03:16:51.747Z,948.48
2019-03-29T03:17:52.624Z,948.49
2019-03-29T03:18:53.253Z,948.52
2019-03-29T03:19:54.609Z,948.57
2019-03-29T03:20:55.666Z,948.55
2019-03-29T03:21:55.988Z,948.45
2019-03-29T03:22:57.189Z,948.45
2019-03-29T03:23:57.826Z,948.45
2019-03-29T03:24:58.461Z,948.47
2019-03-29T03:25:58.978Z,948.46
2019-03-29T03:26:59.876Z,948.45
2019-03-29T03:28:01.131Z,948.43
2019-03-29T03:29:02.380Z,948.45
2019-03-29T03:30:02.775Z,948.43
2019-03-29T03:31:04.092Z,948.42
2019-03-29T03:32:04.792Z,948.41
2019-03-29T03:33:05.801Z,948.45
2019-03-29T03:34:06.499Z,948.43
2019-03-29T03:35:07.638Z,948.41
2019-03-29T03:36:08.124Z,948.45
2019-03-29T03:37:08.832Z,948.44
2019-03-29T03:38:09.723Z,948.47
2019-03-29T03:39:10.403Z,948.45
2019-03-29T03:39:31.102Z,948.44
2019-03-29T03:39:32.583Z,948.45
2019-03-29T03:40:32.059Z,948.48
2019-03-29T03:41:33.124Z,948.44
2019-03-29T03:42:34.296Z,948.48
2019-03-29T03:43:35.461Z,948.47
2019-03-29T03:44:36.238Z,948.43
2019-03-29T03:45:37.122Z,948.4
2019-03-29T03:46:38.445Z,948.38
2019-03-29T03:47:39.544Z,948.4
2019-03-29T03:48:40.365Z,948.4
2019-03-29T03:49:40.695Z,948.4
2019-03-29T03:50:41.362Z,948.37
2019-03-29T03:51:41.981Z,948.43
2019-03-29T03:52:42.604Z,948.4
2019-03-29T03:53:43.678Z,948.4
2019-03-29T03:54:44.099Z,948.42
2019-03-29T03:55:45.417Z,948.46
2019-03-29T03:56:45.752Z,948.46
2019-03-29T03:57:46.066Z,948.45
2019-03-29T03:58:47.155Z,948.5
2019-03-29T03:59:48.216Z,948.49
2019-03-29T04:00:48.658Z,948.47
2019-03-29T04:01:49.729Z,948.47
2019-03-29T04:02:50.491Z,948.44
2019-03-29T04:03:51.642Z,948.44
2019-03-29T04:04:51.985Z,948.45
2019-03-29T04:05:52.328Z,948.44
2019-03-29T04:06:53.105Z,948.42
2019-03-29T04:07:54.138Z,948.39
2019-03-29T04:08:54.730Z,948.38
2019-03-29T04:09:55.246Z,948.34
2019-03-29T04:10:55.879Z,948.35
2019-03-29T04:11:56.883Z,948.36
2019-03-29T04:12:57.495Z,948.39
2019-03-29T04:13:58.527Z,948.3
2019-03-29T04:14:59.592Z,948.34
2019-03-29T04:16:00.262Z,948.32
2019-03-29T04:17:01.319Z,948.35
2019-03-29T04:18:01.667Z,948.35
2019-03-29T04:19:02.302Z,948.36
2019-03-29T04:20:02.979Z,948.35
2019-03-29T04:21:04.089Z,948.35
2019-03-29T04:22:04.722Z,948.3
2019-03-29T04:23:05.057Z,948.39
2019-03-29T04:24:06.137Z,948.36
2019-03-29T04:25:07.273Z,948.38
2019-03-29T04:26:08.651Z,948.34
2019-03-29T04:27:09.687Z,948.35
2019-03-29T04:28:10.733Z,948.32
2019-03-29T04:29:11.542Z,948.35
2019-03-29T04:30:12.175Z,948.35
2019-03-29T04:31:12.693Z,948.36
2019-03-29T04:32:13.880Z,948.36
2019-03-29T04:33:14.715Z,948.29
2019-03-29T04:34:15.877Z,948.3
2019-03-29T04:35:16.644Z,948.32
2019-03-29T04:36:17.258Z,948.31
2019-03-29T04:37:17.762Z,948.31
2019-03-29T04:38:19.130Z,948.33
2019-03-29T04:39:19.456Z,948.37
2019-03-29T04:40:20.223Z,948.34
2019-03-29T04:41:21.038Z,948.32
2019-03-29T04:42:22.348Z,948.36
2019-03-29T04:43:23.411Z,948.37
2019-03-29T04:44:24.028Z,948.38
2019-03-29T04:45:24.647Z,948.34
2019-03-29T04:46:25.700Z,948.37
2019-03-29T04:47:26.313Z,948.36
2019-03-29T04:48:27.668Z,948.32
2019-03-29T04:49:28.291Z,948.32
2019-03-29T04:50:28.811Z,948.3
2019-03-29T04:51:29.505Z,948.29
2019-03-29T04:52:30.536Z,948.32
2019-03-29T04:53:30.794Z,948.31
2019-03-29T04:54:32.112Z,948.29
2019-03-29T04:55:32.867Z,948.29
2019-03-29T04:56:33.069Z,948.3
2019-03-29T04:57:34.136Z,948.35
2019-03-29T04:58:34.621Z,948.28
2019-03-29T04:59:35.101Z,948.27
2019-03-29T05:00:35.857Z,948.26
2019-03-29T05:01:36.794Z,948.28
2019-03-29T05:02:37.279Z,948.28
2019-03-29T05:03:37.603Z,948.21
2019-03-29T05:04:38.093Z,948.29
2019-03-29T05:05:38.871Z,948.26
2019-03-29T05:06:39.187Z,948.33
2019-03-29T05:07:39.856Z,948.26
2019-03-29T05:08:40.937Z,948.3
2019-03-29T05:09:41.836Z,948.29
2019-03-29T05:10:42.717Z,948.3
2019-03-29T05:11:43.336Z,948.27
2019-03-29T05:12:44.373Z,948.31
2019-03-29T05:13:45.244Z,948.32
2019-03-29T05:14:45.764Z,948.3
2019-03-29T05:15:46.528Z,948.31
2019-03-29T05:16:47.283Z,948.28
2019-03-29T05:17:48.044Z,948.33
2019-03-29T05:18:48.523Z,948.31
2019-03-29T05:19:49.012Z,948.26
2019-03-29T05:20:49.501Z,948.3
2019-03-29T05:21:50.432Z,948.28
2019-03-29T05:22:51.185Z,948.3
2019-03-29T05:23:51.404Z,948.31
2019-03-29T05:24:52.160Z,948.32
2019-03-29T05:25:52.914Z,948.33
2019-03-29T05:26:53.521Z,948.35
2019-03-29T05:27:54.390Z,948.35
2019-03-29T05:28:55.516Z,948.34
2019-03-29T05:29:56.274Z,948.32
2019-03-29T05:30:56.591Z,948.29
2019-03-29T05:31:56.909Z,948.33
2019-03-29T05:32:57.667Z,948.3
2019-03-29T05:33:58.427Z,948.35
2019-03-29T05:34:58.912Z,948.35
2019-03-29T05:35:59.967Z,948.32
2019-03-29T05:37:00.549Z,948.32
2019-03-29T05:38:00.760Z,948.27
2019-03-29T05:39:01.284Z,948.26
2019-03-29T05:40:02.062Z,948.31
2019-03-29T05:41:04.645Z,948.24
2019-03-29T05:41:13.739Z,948.23
2019-03-29T05:41:23.587Z,948.23
2019-03-29T05:42:24.430Z,948.29
2019-03-29T05:43:26.582Z,948.22
2019-03-29T05:43:35.485Z,948.2
2019-03-29T05:44:35.761Z,948.23
2019-03-29T05:45:36.761Z,948.21
2019-03-29T05:46:37.460Z,948.25
2019-03-29T05:47:38.180Z,948.28
2019-03-29T05:48:39.222Z,948.25
2019-03-29T05:49:41.413Z,948.24
2019-03-29T05:50:43.239Z,948.23
2019-03-29T05:50:52.090Z,948.26
2019-03-29T05:51:53.986Z,948.23
2019-03-29T05:52:03.017Z,948.23
2019-03-29T05:52:13.465Z,948.18
2019-03-29T05:52:23.224Z,948.22
2019-03-29T05:52:33.381Z,948.19
2019-03-29T05:53:33.903Z,948.16
2019-03-29T05:54:34.385Z,948.14
2019-03-29T05:55:34.882Z,948.14
2019-03-29T05:56:35.986Z,948.17
2019-03-29T05:57:37.244Z,948.18
2019-03-29T05:58:38.055Z,948.21
2019-03-29T05:59:38.648Z,948.22
2019-03-29T06:00:39.961Z,948.14
2019-03-29T06:01:40.587Z,948.12
2019-03-29T06:02:41.352Z,948.15
2019-03-29T06:03:42.401Z,948.13
2019-03-29T06:04:42.886Z,948.1
2019-03-29T06:05:44.941Z,948.13
2019-03-29T06:06:45.021Z,948.09
2019-03-29T06:07:47.566Z,948.1
2019-03-29T06:07:56.623Z,948.07
2019-03-29T06:08:06.936Z,948.08
2019-03-29T06:08:17.157Z,948.08
2019-03-29T06:08:27.441Z,948.12
2019-03-29T06:08:37.232Z,948.11
2019-03-29T06:09:37.782Z,948.13
2019-03-29T06:10:49.641Z,948.14
2019-03-29T06:11:49.281Z,948.15
2019-03-29T06:12:49.510Z,948.15
2019-03-29T06:13:50.278Z,948.15
2019-03-29T06:14:52.782Z,948.28
2019-03-29T06:15:01.848Z,948.32
2019-03-29T06:16:02.174Z,948.48
2019-03-29T06:17:03.657Z,948.57
2019-03-29T06:17:12.510Z,948.52
2019-03-29T06:18:13.616Z,948.56
2019-03-29T06:19:14.104Z,948.58
2019-03-29T06:20:15.248Z,948.66
2019-03-29T06:21:15.766Z,948.78
2019-03-29T06:22:16.997Z,948.81
2019-03-29T06:23:17.284Z,948.73
2019-03-29T06:24:18.880Z,948.81
2019-03-29T06:25:20.059Z,948.85
2019-03-29T06:26:20.838Z,948.91
2019-03-29T06:27:21.620Z,948.92
2019-03-29T06:28:22.125Z,948.94
2019-03-29T06:29:22.650Z,948.94
2019-03-29T06:30:23.210Z,948.91
2019-03-29T06:31:23.813Z,948.88
2019-03-29T06:32:24.630Z,948.86
2019-03-29T06:33:27.160Z,948.9
2019-03-29T06:33:36.186Z,948.88
2019-03-29T06:33:46.024Z,948.9
2019-03-29T06:34:46.727Z,948.89
2019-03-29T06:35:47.301Z,948.92
2019-03-29T06:36:49.315Z,948.94
2019-03-29T06:36:58.487Z,948.94
2019-03-29T06:37:08.893Z,948.92
2019-03-29T06:37:19.308Z,948.89
2019-03-29T06:38:18.710Z,948.95
2019-03-29T06:39:22.639Z,948.94
2019-03-29T06:39:30.488Z,948.95
2019-03-29T06:39:40.700Z,948.96
2019-03-29T06:40:40.401Z,948.94
2019-03-29T06:41:41.451Z,948.91
2019-03-29T06:42:41.947Z,948.97
2019-03-29T06:43:42.167Z,948.93
2019-03-29T06:44:44.954Z,948.89
2019-03-29T06:45:48.634Z,948.86
2019-03-29T06:46:48.877Z,948.89
2019-03-29T06:47:50.682Z,948.91
2019-03-29T06:48:51.711Z,948.87
2019-03-29T06:49:52.116Z,948.85
2019-03-29T06:50:53.299Z,948.81
2019-03-29T06:51:53.838Z,948.83
2019-03-29T06:52:54.293Z,948.85
2019-03-29T06:53:55.543Z,948.83
2019-03-29T06:54:56.810Z,948.83
2019-03-29T06:55:59.985Z,948.78
2019-03-29T06:57:00.762Z,948.78
2019-03-29T06:58:01.095Z,948.81
2019-03-29T06:59:01.496Z,948.75
2019-03-29T07:00:02.118Z,948.69
2019-03-29T07:01:03.805Z,948.71
2019-03-29T07:02:04.897Z,948.77
2019-03-29T07:03:05.194Z,948.82
2019-03-29T07:04:07.443Z,948.83
2019-03-29T07:04:16.709Z,948.83
2019-03-29T07:05:18.696Z,948.84
2019-03-29T07:06:19.551Z,948.85
2019-03-29T07:07:21.747Z,948.83
2019-03-29T07:08:22.128Z,948.82
2019-03-29T07:09:23.663Z,948.77
2019-03-29T07:09:33.738Z,948.75
2019-03-29T07:10:34.360Z,948.77
2019-03-29T07:11:35.059Z,948.77
2019-03-29T07:12:36.746Z,948.78
2019-03-29T07:13:36.780Z,948.75
2019-03-29T07:14:37.563Z,948.77
2019-03-29T07:15:38.064Z,948.8
2019-03-29T07:16:39.407Z,948.83
2019-03-29T07:17:40.467Z,948.82
2019-03-29T07:18:41.680Z,948.8
2019-03-29T07:19:42.188Z,948.87
2019-03-29T07:20:43.169Z,948.81
2019-03-29T07:21:43.961Z,948.79
2019-03-29T07:22:44.747Z,948.8
2019-03-29T07:23:45.757Z,948.85
2019-03-29T07:24:46.636Z,948.84
2019-03-29T07:25:47.584Z,948.87
2019-03-29T07:26:48.171Z,948.81
2019-03-29T07:27:52.910Z,948.76
2019-03-29T07:28:53.428Z,948.78
2019-03-29T07:29:54.207Z,948.78
2019-03-29T07:30:54.714Z,948.72
2019-03-29T07:31:55.266Z,948.72
2019-03-29T07:32:56.097Z,948.69
2019-03-29T07:33:57.167Z,948.7
2019-03-29T07:34:57.682Z,948.68
2019-03-29T07:35:57.947Z,948.72
2019-03-29T07:36:58.443Z,948.69
2019-03-29T07:37:58.940Z,948.66
2019-03-29T07:38:59.717Z,948.68
2019-03-29T07:40:01.509Z,948.72
2019-03-29T07:41:02.397Z,948.7
2019-03-29T07:42:04.523Z,948.71
2019-03-29T07:43:05.237Z,948.7
2019-03-29T07:44:06.663Z,948.71
2019-03-29T07:45:10.823Z,948.73
2019-03-29T07:45:18.164Z,948.72
2019-03-29T07:46:18.668Z,948.75
2019-03-29T07:47:19.161Z,948.76
2019-03-29T07:48:19.961Z,948.78
2019-03-29T07:49:20.543Z,948.79
2019-03-29T07:50:21.049Z,948.77
2019-03-29T07:51:21.273Z,948.8
2019-03-29T07:52:21.750Z,948.72
2019-03-29T07:53:22.813Z,948.73
2019-03-29T07:54:23.992Z,948.77
2019-03-29T07:55:24.828Z,948.81
2019-03-29T07:56:25.852Z,948.78
2019-03-29T07:57:26.642Z,948.77
2019-03-29T07:58:26.995Z,948.73
2019-03-29T07:59:28.070Z,948.73
2019-03-29T08:00:28.573Z,948.75
2019-03-29T08:01:33.018Z,948.75
2019-03-29T08:01:39.540Z,948.77
2019-03-29T08:02:41.326Z,948.81
2019-03-29T08:03:41.403Z,948.76
2019-03-29T08:04:41.632Z,948.71
2019-03-29T08:05:41.939Z,948.73
2019-03-29T08:06:42.396Z,948.75
2019-03-29T08:07:43.140Z,948.76
2019-03-29T08:08:44.001Z,948.71
2019-03-29T08:09:44.705Z,948.71
2019-03-29T08:10:45.204Z,948.72
2019-03-29T08:11:47.400Z,948.71
2019-03-29T08:12:49.820Z,948.76
2019-03-29T08:13:50.528Z,948.68
2019-03-29T08:14:51.169Z,948.67
2019-03-29T08:15:51.973Z,948.69
2019-03-29T08:16:53.679Z,948.7
2019-03-29T08:17:54.226Z,948.73
2019-03-29T08:18:54.731Z,948.73
2019-03-29T08:20:37.005Z,948.71
2019-03-29T08:20:37.946Z,948.73
2019-03-29T08:20:40.468Z,948.7
2019-03-29T08:20:44.254Z,948.69
2019-03-29T08:20:47.448Z,948.71
2019-03-29T08:21:48.571Z,948.71
2019-03-29T08:22:49.499Z,948.65
2019-03-29T08:23:50.580Z,948.63
2019-03-29T08:24:51.455Z,948.61
2019-03-29T08:25:52.087Z,948.63
2019-03-29T08:26:52.437Z,948.63
2019-03-29T08:27:52.955Z,948.61
2019-03-29T08:28:53.736Z,948.66
2019-03-29T08:29:54.512Z,948.7
2019-03-29T08:30:55.019Z,948.69
2019-03-29T08:31:56.078Z,948.69
2019-03-29T08:32:56.596Z,948.6
2019-03-29T08:33:57.101Z,948.63
2019-03-29T08:34:58.230Z,948.65
2019-03-29T08:35:59.364Z,948.66
2019-03-29T08:37:00.322Z,948.64
2019-03-29T08:38:00.781Z,948.64
2019-03-29T08:39:02.147Z,948.65
2019-03-29T08:40:03.158Z,948.66
2019-03-29T08:41:03.747Z,948.65
2019-03-29T08:42:04.710Z,948.68
2019-03-29T08:43:05.369Z,948.64
2019-03-29T08:44:05.999Z,948.65
2019-03-29T08:45:06.557Z,948.62
2019-03-29T08:46:08.593Z,948.63
2019-03-29T08:47:08.866Z,948.64
2019-03-29T08:48:09.919Z,948.66
2019-03-29T08:49:10.680Z,948.63
2019-03-29T08:50:11.546Z,948.5
2019-03-29T08:51:12.039Z,948.51
2019-03-29T08:52:13.017Z,948.51
2019-03-29T08:53:14.084Z,948.51
2019-03-29T08:54:15.183Z,948.48
2019-03-29T08:55:18.595Z,948.47
2019-03-29T08:56:19.512Z,948.49
2019-03-29T08:57:20.010Z,948.53
2019-03-29T08:58:20.624Z,948.58
2019-03-29T08:59:21.141Z,948.61
2019-03-29T09:00:22.788Z,948.58
2019-03-29T09:01:23.303Z,948.53
2019-03-29T09:02:25.860Z,948.52
2019-03-29T09:03:26.668Z,948.49
2019-03-29T09:04:28.514Z,948.53
2019-03-29T09:05:28.668Z,948.5
2019-03-29T09:06:30.723Z,948.56
2019-03-29T09:07:44.828Z,948.48
2019-03-29T09:08:42.525Z,948.5
2019-03-29T09:09:47.846Z,948.49
2019-03-29T09:09:53.969Z,948.49
2019-03-29T09:10:54.593Z,948.44
2019-03-29T09:11:55.746Z,948.4
2019-03-29T09:12:56.744Z,948.36
2019-03-29T09:13:59.115Z,948.3
2019-03-29T09:14:08.320Z,948.27
2019-03-29T09:14:18.225Z,948.3
2019-03-29T09:15:19.391Z,948.31
2019-03-29T09:16:19.886Z,948.29
2019-03-29T09:17:20.273Z,948.28
2019-03-29T09:18:25.715Z,948.23
2019-03-29T09:18:31.765Z,948.26
2019-03-29T09:18:41.583Z,948.24
2019-03-29T09:18:52.198Z,948.25
2019-03-29T09:19:52.091Z,948.22
2019-03-29T09:20:53.354Z,948.21
2019-03-29T09:21:55.134Z,948.2
2019-03-29T09:22:04.169Z,948.22
2019-03-29T09:23:04.387Z,948.23
2019-03-29T09:24:04.736Z,948.27
2019-03-29T09:24:21.512Z,948.31
2019-03-29T09:24:25.889Z,948.3
2019-03-29T09:24:35.766Z,948.27
2019-03-29T09:24:46.542Z,948.29
2019-03-29T09:24:56.615Z,948.28
2019-03-29T09:25:06.706Z,948.25
2019-03-29T09:26:08.439Z,948.29
2019-03-29T09:27:09.452Z,948.28
2019-03-29T09:28:12.183Z,948.31
2019-03-29T09:29:13.800Z,948.35
2019-03-29T09:29:22.887Z,948.35
2019-03-29T09:29:33.523Z,948.36
2019-03-29T09:30:35.285Z,948.32
2019-03-29T09:31:35.415Z,948.33
2019-03-29T09:32:37.035Z,948.38
2019-03-29T09:33:37.606Z,948.32
2019-03-29T09:34:38.622Z,948.34
2019-03-29T09:35:43.328Z,948.36
2019-03-29T09:36:45.467Z,948.35
2019-03-29T09:37:45.252Z,948.34
2019-03-29T09:38:46.355Z,948.34
2019-03-29T09:39:49.631Z,948.39
2019-03-29T09:41:00.488Z,948.37
2019-03-29T09:42:01.089Z,948.37
2019-03-29T09:43:09.673Z,948.36
2019-03-29T09:43:11.770Z,948.35
2019-03-29T09:44:12.536Z,948.31
2019-03-29T09:45:13.845Z,948.3
2019-03-29T09:46:14.639Z,948.29
2019-03-29T09:47:14.898Z,948.32
2019-03-29T09:48:16.773Z,948.31
2019-03-29T09:49:17.093Z,948.37
2019-03-29T09:50:18.554Z,948.35
2019-03-29T09:50:28.291Z,948.35
2019-03-29T09:51:28.694Z,948.36
2019-03-29T09:52:29.490Z,948.35
2019-03-29T09:53:30.818Z,948.35
2019-03-29T09:54:31.382Z,948.34
2019-03-29T09:55:32.156Z,948.35
2019-03-29T09:56:40.011Z,948.32
2019-03-29T09:56:43.455Z,948.31
2019-03-29T09:57:37.082Z,948.3
2019-03-29T09:57:40.476Z,948.34
2019-03-29T09:58:40.828Z,948.27
2019-03-29T09:59:41.562Z,948.25
2019-03-29T10:00:42.354Z,948.29
2019-03-29T10:01:42.827Z,948.27
2019-03-29T10:02:43.646Z,948.27
2019-03-29T10:03:44.159Z,948.31
2019-03-29T10:04:45.298Z,948.3
2019-03-29T10:05:45.523Z,948.3
2019-03-29T10:06:46.694Z,948.28
2019-03-29T10:07:47.884Z,948.27
2019-03-29T10:08:48.733Z,948.28
2019-03-29T10:09:49.702Z,948.24
2019-03-29T10:10:51.045Z,948.27
2019-03-29T10:11:51.823Z,948.29
2019-03-29T10:12:52.890Z,948.32
2019-03-29T10:13:54.432Z,948.33
2019-03-29T10:14:55.514Z,948.33
2019-03-29T10:15:56.013Z,948.34
2019-03-29T10:16:56.238Z,948.31
2019-03-29T10:17:56.781Z,948.35
2019-03-29T10:18:57.867Z,948.36
2019-03-29T10:19:58.095Z,948.36
2019-03-29T10:20:58.352Z,948.33
2019-03-29T10:21:59.436Z,948.32
2019-03-29T10:22:59.993Z,948.3
2019-03-29T10:24:00.361Z,948.32
2019-03-29T10:25:17.929Z,948.33
2019-03-29T10:25:18.833Z,948.34
2019-03-29T10:25:21.759Z,948.31
2019-03-29T10:26:21.642Z,948.32
2019-03-29T10:27:21.889Z,948.27
2019-03-29T10:28:22.503Z,948.29
2019-03-29T10:29:23.023Z,948.3
2019-03-29T10:30:23.528Z,948.3
2019-03-29T10:31:34.152Z,948.26
2019-03-29T10:32:34.961Z,948.25
2019-03-29T10:33:36.160Z,948.26
2019-03-29T10:34:38.260Z,948.27
2019-03-29T10:35:52.388Z,948.3
2019-03-29T10:36:50.067Z,948.28
2019-03-29T10:37:51.003Z,948.26
2019-03-29T10:38:52.932Z,948.3
2019-03-29T10:39:02.238Z,948.32
2019-03-29T10:40:02.158Z,948.3
2019-03-29T10:41:02.661Z,948.27
2019-03-29T10:42:03.452Z,948.24
2019-03-29T10:43:04.262Z,948.23
2019-03-29T10:44:05.067Z,948.26
2019-03-29T10:45:05.627Z,948.25
2019-03-29T10:46:06.595Z,948.27
2019-03-29T10:47:07.562Z,948.25
2019-03-29T10:48:08.349Z,948.23
2019-03-29T10:49:09.491Z,948.21
2019-03-29T10:50:09.986Z,948.19
2019-03-29T10:51:10.490Z,948.24
2019-03-29T10:52:10.729Z,948.2
2019-03-29T10:53:11.076Z,948.19
2019-03-29T10:54:11.304Z,948.18
2019-03-29T10:55:13.393Z,948.17
2019-03-29T10:55:22.430Z,948.18
2019-03-29T10:56:34.200Z,948.14
2019-03-29T10:57:34.003Z,948.12
2019-03-29T10:58:34.826Z,948.12
2019-03-29T10:59:35.883Z,948.1
2019-03-29T11:00:36.431Z,948.05
2019-03-29T11:01:37.884Z,948.04
2019-03-29T11:02:38.959Z,948
2019-03-29T11:03:39.465Z,947.97
2019-03-29T11:04:41.446Z,947.96
2019-03-29T11:05:42.172Z,948
2019-03-29T11:06:43.069Z,947.98
2019-03-29T11:06:53.383Z,947.95
2019-03-29T11:07:53.862Z,947.99
2019-03-29T11:08:54.718Z,948
2019-03-29T11:09:55.936Z,948.01
2019-03-29T11:10:05.924Z,948.03
2019-03-29T11:10:16.219Z,948.01
2019-03-29T11:10:26.548Z,948.01
2019-03-29T11:11:27.183Z,948.04
2019-03-29T11:12:28.732Z,948.07
2019-03-29T11:13:29.138Z,948.03
2019-03-29T11:14:30.767Z,948.01
2019-03-29T11:15:30.972Z,948.01
2019-03-29T11:16:32.357Z,948.03
2019-03-29T11:17:33.248Z,948
2019-03-29T11:18:33.589Z,948
2019-03-29T11:19:34.088Z,948.01
2019-03-29T11:20:35.516Z,947.98
2019-03-29T11:21:36.624Z,947.97
2019-03-29T11:22:37.133Z,947.96
2019-03-29T11:23:37.358Z,947.98
2019-03-29T11:24:38.415Z,948
2019-03-29T11:25:38.732Z,948.01
2019-03-29T11:26:39.511Z,948.05
2019-03-29T11:27:39.741Z,948.02
2019-03-29T11:28:40.396Z,947.97
2019-03-29T11:29:40.912Z,947.96
2019-03-29T11:30:43.334Z,947.98
2019-03-29T11:31:44.592Z,948
2019-03-29T11:32:45.791Z,947.93
2019-03-29T11:33:46.302Z,947.98
2019-03-29T11:34:48.214Z,947.99
2019-03-29T11:34:57.771Z,948.01
2019-03-29T11:35:08.264Z,947.99
2019-03-29T11:35:18.799Z,947.99
2019-03-29T11:36:18.458Z,947.98
2019-03-29T11:37:18.993Z,947.93
2019-03-29T11:38:19.722Z,947.96
2019-03-29T11:39:20.266Z,947.97
2019-03-29T11:40:20.781Z,947.96
2019-03-29T11:41:21.562Z,947.91
2019-03-29T11:42:22.072Z,947.94
2019-03-29T11:43:28.473Z,947.9
2019-03-29T11:43:33.516Z,947.88
2019-03-29T11:43:44.157Z,947.87
2019-03-29T11:43:54.076Z,947.87
2019-03-29T11:44:55.331Z,947.85
2019-03-29T11:45:55.831Z,947.79
2019-03-29T11:46:55.975Z,947.83